createdAt,value
2023-01-29T00:01:54.349Z,4.10
2023-01-29T00:04:22.319Z,4.10
2023-01-29T00:06:48.739Z,5.70
2023-01-29T00:09:15.475Z,5.20
2023-01-29T00:11:42.172Z,4.83
2023-01-29T00:14:08.676Z,4.87
2023-01-29T00:16:35.233Z,4.37
2023-01-29T00:19:02.597Z,4.00
2023-01-29T00:21:31.004Z,6.33
2023-01-29T00:23:58.587Z,5.47
2023-01-29T00:26:26.171Z,6.00
2023-01-29T00:28:52.808Z,5.23
2023-01-29T00:31:24.599Z,3.90
2023-01-29T00:33:51.732Z,4.27
2023-01-29T00:36:21.096Z,4.67
2023-01-29T00:38:54.714Z,4.20
2023-01-29T00:41:41.619Z,5.17
2023-01-29T00:44:26.930Z,4.43
2023-01-29T00:46:53.538Z,4.00
2023-01-29T00:49:20.295Z,5.67
2023-01-29T00:52:09.562Z,5.83
2023-01-29T00:54:36.736Z,4.13
2023-01-29T00:57:04.193Z,4.07
2023-01-29T00:59:31.649Z,4.20
2023-01-29T01:02:17.019Z,6.23
2023-01-29T01:04:43.604Z,5.83
2023-01-29T01:10:05.836Z,4.07
2023-01-29T01:12:32.678Z,5.43
2023-01-29T01:14:59.458Z,5.63
2023-01-29T01:17:26.177Z,5.90
2023-01-29T01:19:52.658Z,4.20
2023-01-29T01:22:19.335Z,6.33
2023-01-29T01:24:46.398Z,5.50
2023-01-29T01:27:13.640Z,7.40
2023-01-29T01:29:40.717Z,5.50
2023-01-29T01:32:07.577Z,6.27
2023-01-29T01:34:34.281Z,5.03
2023-01-29T01:37:00.907Z,4.90
2023-01-29T01:39:27.348Z,5.00
2023-01-29T01:41:54.714Z,6.73
2023-01-29T01:44:58.591Z,5.80
2023-01-29T01:47:30.812Z,6.07
2023-01-29T01:50:02.683Z,5.30
2023-01-29T01:52:32.015Z,5.70
2023-01-29T01:55:00.410Z,5.23
2023-01-29T01:57:31.127Z,5.53
2023-01-29T02:00:10.195Z,5.17
2023-01-29T02:03:01.204Z,5.47
2023-01-29T02:05:49.895Z,4.53
2023-01-29T02:08:44.565Z,4.70
2023-01-29T02:11:11.367Z,6.07
2023-01-29T02:13:38.344Z,5.40
2023-01-29T02:16:05.019Z,6.10
2023-01-29T02:18:38.008Z,4.67
2023-01-29T02:21:56.681Z,5.07
2023-01-29T02:24:53.978Z,6.87
2023-01-29T02:27:31.351Z,5.67
2023-01-29T02:30:22.862Z,7.53
2023-01-29T02:33:07.548Z,5.87
2023-01-29T02:35:42.531Z,5.80
2023-01-29T02:38:38.447Z,6.83
2023-01-29T02:41:20.438Z,5.97
2023-01-29T02:43:55.559Z,7.37
2023-01-29T02:46:41.203Z,3.93
2023-01-29T02:49:16.489Z,5.77
2023-01-29T02:51:51.372Z,5.90
2023-01-29T02:54:27.665Z,5.97
2023-01-29T02:57:08.508Z,6.63
2023-01-29T02:59:40.731Z,6.27
2023-01-29T03:02:13.640Z,8.23
2023-01-29T03:04:46.483Z,6.80
2023-01-29T03:07:41.288Z,5.87
2023-01-29T03:10:17.852Z,6.20
2023-01-29T03:12:47.790Z,6.13
2023-01-29T03:15:27.243Z,5.10
2023-01-29T03:18:15.436Z,7.87
2023-01-29T03:20:48.035Z,7.70
2023-01-29T03:23:53.798Z,7.60
2023-01-29T03:26:41.715Z,8.67
2023-01-29T03:29:28.599Z,8.67
2023-01-29T03:32:09.399Z,6.90
2023-01-29T03:34:48.087Z,5.50
2023-01-29T03:37:33.003Z,8.43
2023-01-29T03:39:59.593Z,6.27
2023-01-29T03:42:40.940Z,7.17
2023-01-29T03:45:19.625Z,6.73
2023-01-29T03:47:54.525Z,7.43
2023-01-29T03:50:36.640Z,5.80
2023-01-29T03:53:28.283Z,7.00
2023-01-29T03:56:19.505Z,7.43
2023-01-29T03:59:02.559Z,5.80
2023-01-29T04:01:56.046Z,6.40
2023-01-29T04:04:38.168Z,6.97
2023-01-29T04:07:24.613Z,7.13
2023-01-29T04:10:04.815Z,5.70
2023-01-29T04:12:47.534Z,7.37
2023-01-29T04:15:16.971Z,6.33
2023-01-29T04:17:51.660Z,8.33
2023-01-29T04:20:25.654Z,5.97
2023-01-29T04:22:52.711Z,6.00
2023-01-29T04:25:28.859Z,6.90
2023-01-29T04:28:07.997Z,7.77
2023-01-29T04:30:56.649Z,6.37
2023-01-29T04:33:33.731Z,8.63
2023-01-29T04:36:38.113Z,7.60
2023-01-29T04:39:31.818Z,7.13
2023-01-29T04:42:36.969Z,6.47
2023-01-29T04:45:25.585Z,8.03
2023-01-29T04:48:00.711Z,5.60
2023-01-29T04:50:36.608Z,8.23
2023-01-29T04:53:23.756Z,7.13
2023-01-29T04:55:57.487Z,5.83
2023-01-29T04:58:35.867Z,6.23
2023-01-29T05:01:06.129Z,7.83
2023-01-29T05:03:34.264Z,6.63
2023-01-29T05:06:02.493Z,9.17
2023-01-29T05:08:31.905Z,5.10
2023-01-29T05:10:59.763Z,5.00
2023-01-29T05:13:29.865Z,7.57
2023-01-29T05:16:22.187Z,6.80
2023-01-29T05:18:48.795Z,6.50
2023-01-29T05:21:15.429Z,6.57
2023-01-29T05:23:53.054Z,8.37
2023-01-29T05:26:40.050Z,7.17
2023-01-29T05:29:06.499Z,7.70
2023-01-29T05:31:32.966Z,7.10
2023-01-29T05:33:59.455Z,6.83
2023-01-29T05:36:26.789Z,8.73
2023-01-29T05:38:53.335Z,6.50
2023-01-29T05:41:20.991Z,5.30
2023-01-29T05:43:47.623Z,6.63
2023-01-29T05:46:14.079Z,8.53
2023-01-29T05:48:40.512Z,5.77
2023-01-29T05:51:06.964Z,5.20
2023-01-29T05:53:33.579Z,4.90
2023-01-29T05:56:04.554Z,4.87
2023-01-29T05:58:32.598Z,6.03
2023-01-29T06:01:08.459Z,5.67
2023-01-29T06:03:34.923Z,6.57
2023-01-29T06:06:02.092Z,5.57
2023-01-29T06:08:28.548Z,6.90
2023-01-29T06:10:55.062Z,7.43
2023-01-29T06:13:23.581Z,6.57
2023-01-29T06:15:50.207Z,7.67
2023-01-29T06:18:16.662Z,6.93
2023-01-29T06:20:43.120Z,9.87
2023-01-29T06:23:09.539Z,4.37
2023-01-29T06:25:36.014Z,5.40
2023-01-29T06:28:02.485Z,7.93
2023-01-29T06:30:28.930Z,6.23
2023-01-29T06:32:58.651Z,7.23
2023-01-29T06:35:25.643Z,7.20
2023-01-29T06:37:52.064Z,7.47
2023-01-29T06:40:19.070Z,8.27
2023-01-29T06:42:46.228Z,5.10
2023-01-29T06:45:12.807Z,5.00
2023-01-29T06:47:39.259Z,6.23
2023-01-29T06:50:06.133Z,12.60
2023-01-29T06:52:32.672Z,7.87
2023-01-29T06:54:59.099Z,15.63
2023-01-29T06:57:28.441Z,8.50
2023-01-29T06:59:54.916Z,6.80
2023-01-29T07:02:21.404Z,7.33
2023-01-29T07:04:47.999Z,8.10
2023-01-29T07:07:14.511Z,7.97
2023-01-29T07:09:42.242Z,6.70
2023-01-29T07:12:10.648Z,6.17
2023-01-29T07:14:37.125Z,7.50
2023-01-29T07:17:03.840Z,6.87
2023-01-29T07:19:30.264Z,6.40
2023-01-29T07:21:56.879Z,6.13
2023-01-29T07:24:23.340Z,8.10
2023-01-29T07:26:49.816Z,7.00
2023-01-29T07:29:16.193Z,6.23
2023-01-29T07:31:42.767Z,8.10
2023-01-29T07:34:09.200Z,7.27
2023-01-29T07:36:37.180Z,6.63
2023-01-29T07:39:05.331Z,6.87
2023-01-29T07:41:31.742Z,6.90
2023-01-29T07:43:59.559Z,6.70
2023-01-29T07:46:26.060Z,6.77
2023-01-29T07:48:52.505Z,7.07
2023-01-29T07:51:19.230Z,7.60
2023-01-29T07:53:45.829Z,7.63
2023-01-29T07:56:12.386Z,7.53
2023-01-29T07:58:38.856Z,7.63
2023-01-29T08:01:07.598Z,6.50
2023-01-29T08:03:34.138Z,5.73
2023-01-29T08:06:00.641Z,7.90
2023-01-29T08:08:27.115Z,7.03
2023-01-29T08:10:53.526Z,8.13
2023-01-29T08:13:19.992Z,6.63
2023-01-29T08:15:46.449Z,7.37
2023-01-29T08:18:14.133Z,7.43
2023-01-29T08:20:40.587Z,7.00
2023-01-29T08:23:12.708Z,6.90
2023-01-29T08:25:39.303Z,7.10
2023-01-29T08:28:05.859Z,7.53
2023-01-29T08:30:34.575Z,8.80
2023-01-29T08:33:02.788Z,6.07
2023-01-29T08:35:29.238Z,6.40
2023-01-29T08:37:59.109Z,12.80
2023-01-29T08:40:26.306Z,7.37
2023-01-29T08:42:52.791Z,6.20
2023-01-29T08:45:19.316Z,8.70
2023-01-29T08:47:49.945Z,7.33
2023-01-29T08:50:17.574Z,7.43
2023-01-29T08:52:45.796Z,8.20
2023-01-29T08:55:13.031Z,7.23
2023-01-29T08:57:39.770Z,7.73
2023-01-29T09:00:08.110Z,7.20
2023-01-29T09:02:34.783Z,6.63
2023-01-29T09:05:01.262Z,7.20
2023-01-29T09:07:29.128Z,11.40
2023-01-29T09:09:55.613Z,10.90
2023-01-29T09:12:22.153Z,14.63
2023-01-29T09:14:48.603Z,8.17
2023-01-29T09:17:15.416Z,8.67
2023-01-29T09:19:41.869Z,10.23
2023-01-29T09:22:10.332Z,7.13
2023-01-29T09:24:37.445Z,8.33
2023-01-29T09:27:05.079Z,6.83
2023-01-29T09:29:35.767Z,6.27
2023-01-29T09:32:04.594Z,6.67
2023-01-29T09:34:30.987Z,7.67
2023-01-29T09:36:57.515Z,7.50
2023-01-29T09:39:24.117Z,9.47
2023-01-29T09:41:56.731Z,17.73
2023-01-29T09:44:28.722Z,8.03
2023-01-29T09:46:56.678Z,6.77
2023-01-29T09:49:35.593Z,6.83
2023-01-29T09:52:07.141Z,6.20
2023-01-29T09:54:51.281Z,6.00
2023-01-29T09:57:25.719Z,6.77
2023-01-29T09:59:52.219Z,6.23
2023-01-29T10:02:26.260Z,8.40
2023-01-29T10:05:07.858Z,6.80
2023-01-29T10:07:50.969Z,6.77
2023-01-29T10:10:20.224Z,6.37
2023-01-29T10:13:07.514Z,7.07
2023-01-29T10:16:08.203Z,7.57
2023-01-29T10:18:55.308Z,6.80
2023-01-29T10:21:51.039Z,6.70
2023-01-29T10:24:35.363Z,7.83
2023-01-29T10:27:03.710Z,6.53
2023-01-29T10:29:32.595Z,7.23
2023-01-29T10:32:04.981Z,6.70
2023-01-29T10:34:42.811Z,5.73
2023-01-29T10:37:18.641Z,6.77
2023-01-29T10:39:46.027Z,18.77
2023-01-29T10:42:31.341Z,18.20
2023-01-29T10:45:13.077Z,9.53
2023-01-29T10:47:59.710Z,7.50
2023-01-29T10:50:50.399Z,6.80
2023-01-29T10:53:42.208Z,4.70
2023-01-29T10:56:22.714Z,7.60
2023-01-29T10:58:57.351Z,7.43
2023-01-29T11:01:23.979Z,7.97
2023-01-29T11:04:02.306Z,5.33
2023-01-29T11:06:32.391Z,6.67
2023-01-29T11:12:11.906Z,7.70
2023-01-29T11:14:51.562Z,8.37
2023-01-29T11:17:21.013Z,8.33
2023-01-29T11:19:51.202Z,16.77
2023-01-29T11:22:20.254Z,8.87
2023-01-29T11:25:07.007Z,10.30
2023-01-29T11:27:35.552Z,7.87
2023-01-29T11:30:02.746Z,7.87
2023-01-29T11:32:33.947Z,7.43
2023-01-29T11:35:03.708Z,7.60
2023-01-29T11:37:42.191Z,6.13
2023-01-29T11:40:23.798Z,6.87
2023-01-29T11:42:52.280Z,7.30
2023-01-29T11:45:27.534Z,6.60
2023-01-29T11:47:55.900Z,8.87
2023-01-29T11:50:28.057Z,6.97
2023-01-29T11:52:55.378Z,6.53
2023-01-29T11:55:40.960Z,7.63
2023-01-29T11:58:21.339Z,5.77
2023-01-29T12:00:51.277Z,7.13
2023-01-29T12:03:41.438Z,8.07
2023-01-29T12:06:24.064Z,7.03
2023-01-29T12:08:59.555Z,5.03
2023-01-29T12:11:31.395Z,5.30
2023-01-29T12:14:04.184Z,7.77
2023-01-29T12:16:53.170Z,5.80
2023-01-29T12:19:34.621Z,6.77
2023-01-29T12:22:10.499Z,6.10
2023-01-29T12:24:57.789Z,5.70
2023-01-29T12:27:29.740Z,6.40
2023-01-29T12:30:07.331Z,7.73
2023-01-29T12:32:52.304Z,4.93
2023-01-29T12:35:24.051Z,8.03
2023-01-29T12:38:00.904Z,5.50
2023-01-29T12:40:33.086Z,7.20
2023-01-29T12:43:11.197Z,8.50
2023-01-29T12:45:38.092Z,5.40
2023-01-29T12:48:11.999Z,8.57
2023-01-29T12:50:39.620Z,7.33
2023-01-29T12:53:38.816Z,14.07
2023-01-29T12:56:22.619Z,32.30
2023-01-29T12:58:53.279Z,21.87
2023-01-29T13:01:36.717Z,28.60
2023-01-29T13:04:11.479Z,24.93
2023-01-29T13:06:46.371Z,17.27
2023-01-29T13:09:21.073Z,26.50
2023-01-29T13:12:20.409Z,27.43
2023-01-29T13:14:59.066Z,28.60
2023-01-29T13:17:34.653Z,14.03
2023-01-29T13:20:10.380Z,9.73
2023-01-29T13:22:39.815Z,10.10
2023-01-29T13:25:12.229Z,8.33
2023-01-29T13:27:39.161Z,6.63
2023-01-29T13:30:06.528Z,6.87
2023-01-29T13:32:35.569Z,6.03
2023-01-29T13:35:12.564Z,5.77
2023-01-29T13:37:46.370Z,9.53
2023-01-29T13:40:24.206Z,10.83
2023-01-29T13:42:54.098Z,9.33
2023-01-29T13:45:28.002Z,11.80
2023-01-29T13:48:09.250Z,11.97
2023-01-29T13:50:37.547Z,16.40
2023-01-29T13:53:08.277Z,26.90
2023-01-29T13:55:40.197Z,18.00
2023-01-29T13:58:15.141Z,16.03
2023-01-29T14:00:41.525Z,14.30
2023-01-29T14:03:13.645Z,32.73
2023-01-29T14:05:42.485Z,42.10
2023-01-29T14:08:08.849Z,23.43
2023-01-29T14:10:37.732Z,24.00
2023-01-29T14:13:04.104Z,8.23
2023-01-29T14:15:36.292Z,8.50
2023-01-29T14:18:25.369Z,8.90
2023-01-29T14:20:56.665Z,10.03
2023-01-29T14:23:41.341Z,9.33
2023-01-29T14:26:26.682Z,8.07
2023-01-29T14:29:03.709Z,7.93
2023-01-29T14:31:41.233Z,8.23
2023-01-29T14:34:16.804Z,7.20
2023-01-29T14:36:45.878Z,8.80
2023-01-29T14:39:29.532Z,9.43
2023-01-29T14:41:57.067Z,7.90
2023-01-29T14:44:45.591Z,10.00
2023-01-29T14:47:38.199Z,8.73
2023-01-29T14:50:40.924Z,8.07
2023-01-29T14:53:43.025Z,9.87
2023-01-29T14:56:15.577Z,9.43
2023-01-29T14:58:49.103Z,10.30
2023-01-29T15:01:19.182Z,9.53
2023-01-29T15:03:50.785Z,10.17
2023-01-29T15:06:25.035Z,8.67
2023-01-29T15:09:15.251Z,8.97
2023-01-29T15:12:02.574Z,8.13
2023-01-29T15:14:33.883Z,9.67
2023-01-29T15:17:09.131Z,10.50
2023-01-29T15:19:40.173Z,8.27
2023-01-29T15:22:13.240Z,12.03
2023-01-29T15:24:42.070Z,8.07
2023-01-29T15:27:20.089Z,8.33
2023-01-29T15:30:05.961Z,8.97
2023-01-29T15:32:35.781Z,11.23
2023-01-29T15:35:08.826Z,9.20
2023-01-29T15:37:36.320Z,8.83
2023-01-29T15:40:03.437Z,8.87
2023-01-29T15:42:43.789Z,10.37
2023-01-29T15:45:31.187Z,9.33
2023-01-29T15:48:03.581Z,10.10
2023-01-29T15:50:32.706Z,8.53
2023-01-29T15:53:03.721Z,10.90
2023-01-29T15:55:31.621Z,11.07
2023-01-29T15:57:59.767Z,9.20
2023-01-29T16:00:29.620Z,10.77
2023-01-29T16:02:58.052Z,12.47
2023-01-29T16:05:30.535Z,14.20
2023-01-29T16:07:57.707Z,11.93
2023-01-29T16:10:30.203Z,11.17
2023-01-29T16:12:57.414Z,9.30
2023-01-29T16:15:32.085Z,13.33
2023-01-29T16:18:00.322Z,15.53
2023-01-29T16:20:32.848Z,13.10
2023-01-29T16:23:00.168Z,14.10
2023-01-29T16:25:29.529Z,11.10
2023-01-29T16:27:57.270Z,9.77
2023-01-29T16:30:27.788Z,11.73
2023-01-29T16:33:01.791Z,13.00
2023-01-29T16:35:28.468Z,12.93
2023-01-29T16:38:02.571Z,14.57
2023-01-29T16:40:33.076Z,15.50
2023-01-29T16:43:19.681Z,18.13
2023-01-29T16:46:37.854Z,19.90
2023-01-29T16:49:25.946Z,13.93
2023-01-29T16:51:54.200Z,14.20
2023-01-29T16:54:24.667Z,15.00
2023-01-29T16:56:59.829Z,14.13
2023-01-29T16:59:31.468Z,12.73
2023-01-29T17:01:59.067Z,12.97
2023-01-29T17:04:25.700Z,13.13
2023-01-29T17:07:01.913Z,19.90
2023-01-29T17:09:37.557Z,15.13
2023-01-29T17:12:07.959Z,13.50
2023-01-29T17:14:36.559Z,13.93
2023-01-29T17:17:18.765Z,15.80
2023-01-29T17:19:45.300Z,17.13
2023-01-29T17:22:15.079Z,12.67
2023-01-29T17:24:42.579Z,14.13
2023-01-29T17:27:23.050Z,17.03
2023-01-29T17:29:49.703Z,15.97
2023-01-29T17:32:19.904Z,17.00
2023-01-29T17:34:46.860Z,16.27
2023-01-29T17:37:15.316Z,17.33
2023-01-29T17:39:43.303Z,17.03
2023-01-29T17:42:15.110Z,15.93
2023-01-29T17:44:43.011Z,14.27
2023-01-29T17:47:15.041Z,14.47
2023-01-29T17:49:42.434Z,13.23
2023-01-29T17:52:09.534Z,13.30
2023-01-29T17:54:36.053Z,11.70
2023-01-29T17:57:02.904Z,10.63
2023-01-29T17:59:31.555Z,10.40
2023-01-29T18:01:58.621Z,11.40
2023-01-29T18:04:25.662Z,11.63
2023-01-29T18:06:53.244Z,10.43
2023-01-29T18:09:21.098Z,12.63
2023-01-29T18:11:49.202Z,12.30
2023-01-29T18:14:16.249Z,11.80
2023-01-29T18:16:44.063Z,14.50
2023-01-29T18:19:19.708Z,15.10
2023-01-29T18:21:46.675Z,17.80
2023-01-29T18:24:13.129Z,17.33
2023-01-29T18:26:39.584Z,17.63
2023-01-29T18:29:06.094Z,23.50
2023-01-29T18:31:32.597Z,23.03
2023-01-29T18:33:59.171Z,25.43
2023-01-29T18:36:25.593Z,23.83
2023-01-29T18:38:52.073Z,19.93
2023-01-29T18:41:18.564Z,16.57
2023-01-29T18:43:45.101Z,18.43
2023-01-29T18:46:11.630Z,16.17
2023-01-29T18:48:38.101Z,17.63
2023-01-29T18:51:05.341Z,19.53
2023-01-29T18:53:33.373Z,14.53
2023-01-29T18:56:05.608Z,15.40
2023-01-29T18:58:36.113Z,16.23
2023-01-29T19:01:08.957Z,17.70
2023-01-29T19:03:36.229Z,18.37
2023-01-29T19:06:04.860Z,16.10
2023-01-29T19:08:32.195Z,21.03
2023-01-29T19:11:02.296Z,18.80
2023-01-29T19:13:30.051Z,23.27
2023-01-29T19:15:56.665Z,25.93
2023-01-29T19:18:25.931Z,29.90
2023-01-29T19:20:53.100Z,27.80
2023-01-29T19:23:20.040Z,26.47
2023-01-29T19:25:46.927Z,24.47
2023-01-29T19:28:13.559Z,31.03
2023-01-29T19:30:40.078Z,29.73
2023-01-29T19:33:06.676Z,29.73
2023-01-29T19:35:33.631Z,26.70
2023-01-29T19:38:01.085Z,29.07
2023-01-29T19:40:27.603Z,27.40
2023-01-29T19:42:55.795Z,23.63
2023-01-29T19:45:49.654Z,30.23
2023-01-29T19:48:13.378Z,31.53
2023-01-29T19:50:39.805Z,28.00
2023-01-29T19:53:06.353Z,26.80
2023-01-29T19:55:32.984Z,27.60
2023-01-29T19:57:59.442Z,28.17
2023-01-29T20:00:25.901Z,20.80
2023-01-29T20:02:52.385Z,22.77
2023-01-29T20:05:20.334Z,19.67
2023-01-29T20:07:47.084Z,18.93
2023-01-29T20:10:16.924Z,19.23
2023-01-29T20:12:45.104Z,22.20
2023-01-29T20:15:15.131Z,19.80
2023-01-29T20:17:41.999Z,20.97
2023-01-29T20:20:09.316Z,19.10
2023-01-29T20:22:35.871Z,20.20
2023-01-29T20:25:02.505Z,22.07
2023-01-29T20:27:28.921Z,20.33
2023-01-29T20:29:55.383Z,22.17
2023-01-29T20:32:21.832Z,30.80
2023-01-29T20:34:52.065Z,23.17
2023-01-29T20:37:19.814Z,21.20
2023-01-29T20:39:46.895Z,19.83
2023-01-29T20:42:13.449Z,22.80
2023-01-29T20:44:39.917Z,22.13
2023-01-29T20:47:06.427Z,24.27
2023-01-29T20:49:32.928Z,22.57
2023-01-29T20:51:59.409Z,22.43
2023-01-29T20:54:25.888Z,21.13
2023-01-29T20:56:52.412Z,19.80
2023-01-29T20:59:19.581Z,22.47
2023-01-29T21:01:46.099Z,21.93
2023-01-29T21:04:12.551Z,24.37
2023-01-29T21:06:38.974Z,26.63
2023-01-29T21:09:05.576Z,25.23
2023-01-29T21:11:33.463Z,25.23
2023-01-29T21:14:01.707Z,25.50
2023-01-29T21:16:28.222Z,26.43
2023-01-29T21:18:56.508Z,24.73
2023-01-29T21:21:23.243Z,24.23
2023-01-29T21:23:50.099Z,21.80
2023-01-29T21:26:16.598Z,23.43
2023-01-29T21:28:43.047Z,21.53
2023-01-29T21:31:11.510Z,21.93
2023-01-29T21:33:38.388Z,25.60
2023-01-29T21:36:05.249Z,25.03
2023-01-29T21:38:31.782Z,23.10
2023-01-29T21:41:02.788Z,23.20
2023-01-29T21:43:29.242Z,24.73
2023-01-29T21:46:02.391Z,23.47
2023-01-29T21:48:28.819Z,20.23
2023-01-29T21:50:55.294Z,28.40
2023-01-29T21:53:22.183Z,25.87
2023-01-29T21:55:48.673Z,25.23
2023-01-29T21:58:15.129Z,22.50
2023-01-29T22:00:41.549Z,23.53
2023-01-29T22:03:08.111Z,21.33
2023-01-29T22:05:34.745Z,24.43
2023-01-29T22:08:01.265Z,23.90
2023-01-29T22:10:28.518Z,24.30
2023-01-29T22:12:55.297Z,22.23
2023-01-29T22:15:23.752Z,21.80
2023-01-29T22:17:50.602Z,25.97
2023-01-29T22:20:17.468Z,23.23
2023-01-29T22:22:44.105Z,24.20
2023-01-29T22:25:10.709Z,21.90
2023-01-29T22:27:37.482Z,22.77
2023-01-29T22:30:05.638Z,22.23
2023-01-29T22:32:32.955Z,23.83
2023-01-29T22:34:59.545Z,22.20
2023-01-29T22:37:25.960Z,22.43
2023-01-29T22:39:52.442Z,23.60
2023-01-29T22:42:20.345Z,23.40
2023-01-29T22:44:48.038Z,25.33
2023-01-29T22:47:14.542Z,20.90
2023-01-29T22:49:41.524Z,21.37
2023-01-29T22:52:10.653Z,20.13
2023-01-29T22:54:43.443Z,23.30
2023-01-29T22:57:12.485Z,19.27
2023-01-29T22:59:39.443Z,20.87
2023-01-29T23:02:07.353Z,19.03
2023-01-29T23:04:33.823Z,19.07
2023-01-29T23:07:00.247Z,18.53
2023-01-29T23:09:27.073Z,18.77
2023-01-29T23:11:53.574Z,21.00
2023-01-29T23:14:20.231Z,18.17
2023-01-29T23:16:46.720Z,20.30
2023-01-29T23:19:13.195Z,19.43
2023-01-29T23:21:39.797Z,17.57
2023-01-29T23:24:07.824Z,17.43
2023-01-29T23:26:52.885Z,19.00
2023-01-29T23:29:19.383Z,20.17
2023-01-29T23:31:45.906Z,21.57
2023-01-29T23:34:13.614Z,20.83
2023-01-29T23:36:40.105Z,20.43
2023-01-29T23:39:06.659Z,19.17
2023-01-29T23:41:33.318Z,20.07
2023-01-29T23:43:59.762Z,19.03
2023-01-29T23:46:26.273Z,21.00
2023-01-29T23:48:52.887Z,17.30
2023-01-29T23:51:19.346Z,19.70
2023-01-29T23:53:45.838Z,19.57
2023-01-29T23:56:12.337Z,18.57
2023-01-29T23:58:39.095Z,23.03
